aviador You're here:

KPHF Decoded Metar

NEWPORT NEWS in VA, USA
Report Time2018-07-16 07:54:00
UTC Time2018-07-16 08:39:50
Flight Rules vfr VFR
Wind210° at 09 kt
W.Decomp.*RWY 20: 8.5 kt HW 2.9 kt RCW
RWY 25: 7.7 kt HW 4.6 kt LCW
W.Rank210° ranks 2
Current wind is above 210° avg. (8.7)
Visibility9999 m
Phenomena:N/A
Clouds:N/A
Expected CloudBase > 2,000 ft AGL from Temp-Dew spread
CeilingNone
Temp25°C (ISA +10)
Dew Point20°C (74% RH)
QNH1017 hPa
Density Alt1,381 ft
Elevation39 ft
Report Wrong Elevation
Raw Report
KPHF 160754Z AUTO 21009KT 10SM CLR 25/20 A3002 RMK AO2 SLP165
T02500200=

Extra information for KPHF:More info

Metar Taf Metar & Taf Last 4 Metars F.Rules Stats Wind Profile Meteogram Temp Stats Airport Information Weather charts Add Link Nearby VenuesMetar ALERT Operation Metar Decoded Social comments

AIRNAV info for KPHF